createdAt,value
2024-03-16T00:06:55.479Z,969.49
2024-03-16T00:16:55.416Z,969.57
2024-03-16T00:26:55.669Z,969.52
2024-03-16T00:36:56.002Z,969.51
2024-03-16T00:46:55.943Z,969.52
2024-03-16T00:56:56.233Z,969.58
2024-03-16T01:06:56.169Z,969.50
2024-03-16T01:16:56.492Z,969.57
2024-03-16T01:26:56.726Z,969.59
2024-03-16T01:36:56.756Z,969.49
2024-03-16T01:46:56.971Z,969.46
2024-03-16T01:56:56.976Z,969.38
2024-03-16T02:06:57.282Z,969.44
2024-03-16T02:16:57.535Z,969.38
2024-03-16T02:26:57.479Z,969.29
2024-03-16T02:36:58.429Z,969.38
2024-03-16T02:46:57.773Z,969.35
2024-03-16T02:56:58.016Z,969.30
2024-03-16T03:06:58.315Z,969.29
2024-03-16T03:16:58.574Z,969.36
2024-03-16T03:26:58.536Z,969.33
2024-03-16T03:36:58.862Z,969.25
2024-03-16T03:46:58.815Z,969.22
2024-03-16T03:56:59.057Z,969.37
2024-03-16T04:06:59.287Z,969.61
2024-03-16T04:16:59.400Z,969.61
2024-03-16T04:26:59.595Z,969.71
2024-03-16T04:36:59.952Z,969.70
2024-03-16T04:47:00.142Z,969.72
2024-03-16T04:57:00.144Z,969.77
2024-03-16T05:07:00.486Z,969.86
2024-03-16T05:17:00.404Z,969.92
2024-03-16T05:27:00.642Z,970.51
2024-03-16T05:37:00.958Z,970.44
2024-03-16T05:47:00.886Z,970.58
2024-03-16T05:57:01.029Z,970.46
2024-03-16T06:07:01.216Z,970.71
2024-03-16T06:17:01.442Z,970.70
2024-03-16T06:27:01.758Z,970.88
2024-03-16T06:37:02.019Z,971.04
2024-03-16T06:47:01.952Z,971.14
2024-03-16T06:57:02.235Z,971.25
2024-03-16T07:07:02.549Z,971.35
2024-03-16T07:17:04.951Z,971.33
2024-03-16T07:27:02.562Z,971.39
2024-03-16T07:37:03.086Z,971.45
2024-03-16T07:47:03.018Z,971.58
2024-03-16T07:57:03.291Z,971.68
2024-03-16T08:07:03.642Z,971.75
2024-03-16T08:17:03.846Z,971.79
2024-03-16T08:27:03.836Z,971.81
2024-03-16T08:37:04.174Z,971.99
2024-03-16T08:47:04.052Z,972.16
2024-03-16T08:57:04.376Z,972.15
2024-03-16T09:07:04.654Z,972.33
2024-03-16T09:17:04.603Z,972.68
2024-03-16T09:27:04.857Z,972.78
2024-03-16T09:37:04.885Z,972.72
2024-03-16T09:47:05.114Z,972.90
2024-03-16T09:57:05.097Z,972.92
2024-03-16T10:07:05.482Z,973.12
2024-03-16T10:17:06.877Z,972.94
2024-03-16T10:27:05.597Z,973.08
2024-03-16T10:37:05.925Z,972.86
2024-03-16T10:47:06.472Z,972.98
2024-03-16T10:57:06.147Z,973.05
2024-03-16T11:07:06.404Z,972.99
2024-03-16T11:17:06.408Z,973.36
2024-03-16T11:27:06.654Z,973.51
2024-03-16T11:37:06.960Z,973.41
2024-03-16T11:47:06.905Z,973.33
2024-03-16T11:57:07.210Z,973.34
2024-03-16T12:07:07.485Z,973.40
2024-03-16T12:17:07.454Z,973.36
2024-03-16T12:27:07.709Z,973.33
2024-03-16T12:37:08.008Z,973.32
2024-03-16T12:47:07.837Z,973.19
2024-03-16T12:57:08.258Z,973.11
2024-03-16T13:07:08.532Z,973.15
2024-03-16T13:17:08.853Z,973.26
2024-03-16T13:27:08.862Z,973.35
2024-03-16T13:37:08.755Z,973.25
2024-03-16T13:47:09.008Z,973.37
2024-03-16T13:57:13.020Z,973.29
2024-03-16T14:07:09.201Z,973.30
2024-03-16T14:17:09.567Z,973.27
2024-03-16T14:27:09.662Z,973.39
2024-03-16T14:37:09.806Z,973.46
2024-03-16T14:47:09.891Z,973.51
2024-03-16T14:57:11.218Z,973.57
2024-03-16T15:07:10.214Z,973.66
2024-03-16T15:17:10.767Z,973.70
2024-03-16T15:27:10.889Z,973.69
2024-03-16T15:37:10.907Z,974.08
2024-03-16T15:47:11.441Z,974.14
2024-03-16T15:57:11.102Z,974.35
2024-03-16T16:07:11.678Z,974.58
2024-03-16T16:17:11.324Z,974.85
2024-03-16T16:27:16.246Z,975.05
2024-03-16T16:37:14.233Z,975.18
2024-03-16T16:47:11.862Z,975.27
2024-03-16T16:57:12.159Z,975.49
2024-03-16T17:07:12.423Z,975.54
2024-03-16T17:17:12.414Z,975.70
2024-03-16T17:37:12.980Z,976.03
2024-03-16T17:47:12.919Z,976.25
2024-03-16T17:57:13.236Z,976.33
2024-03-16T18:07:13.172Z,976.35
2024-03-16T18:17:13.470Z,976.52
2024-03-16T18:27:13.456Z,976.55
2024-03-16T18:37:13.737Z,976.70
2024-03-16T18:47:13.991Z,976.80
2024-03-16T18:57:13.964Z,976.88
2024-03-16T19:07:14.223Z,977.01
2024-03-16T19:17:14.824Z,977.03
2024-03-16T19:27:14.470Z,977.19
2024-03-16T19:37:14.774Z,977.28
2024-03-16T19:47:14.719Z,977.39
2024-03-16T19:57:15.036Z,977.33
2024-03-16T20:07:14.993Z,977.48
2024-03-16T20:17:15.290Z,977.47
2024-03-16T20:27:15.553Z,977.46
2024-03-16T20:37:15.824Z,977.65
2024-03-16T20:47:15.776Z,977.54
2024-03-16T20:57:16.069Z,977.68
2024-03-16T21:07:16.030Z,977.72
2024-03-16T21:17:16.315Z,977.72
2024-03-16T21:27:16.636Z,977.71
2024-03-16T21:37:16.936Z,977.89
2024-03-16T21:47:16.832Z,977.99
2024-03-16T21:57:17.125Z,978.08
2024-03-16T22:07:17.383Z,977.95
2024-03-16T22:17:17.436Z,978.00
2024-03-16T22:27:17.630Z,978.07
2024-03-16T22:37:17.961Z,978.00
2024-03-16T22:47:17.822Z,978.01
2024-03-16T22:57:18.179Z,978.08
2024-03-16T23:07:18.474Z,978.05
2024-03-16T23:17:18.737Z,977.80
2024-03-16T23:27:18.686Z,977.81
2024-03-16T23:37:18.986Z,977.78
2024-03-16T23:47:19.184Z,977.78
2024-03-16T23:57:19.228Z,977.89
